Time;durP1;ratioP1;P1;durP2;ratioP2;P2;SDS_P1;SDS_P2;PMS_P1;PMS_P2;Temp;Humidity;BMP_temperature;BMP_pressure;BME280_temperature;BME280_humidity;BME280_pressure;Samples;Min_cycle;Max_cycle;Signal;HPM_P1;HPM_P2
2023/02/11 00:00:40;;;;;;;33.13;20.60;;;6.10;99.90;;;;;;5092721;28;20242;-60
2023/02/11 00:03:09;;;;;;;35.80;21.17;;;6.10;99.90;;;;;;5092948;28;20320;-59
2023/02/11 00:05:37;;;;;;;39.60;21.60;;;6.00;99.90;;;;;;5093240;28;20725;-59
2023/02/11 00:08:05;;;;;;;38.80;21.23;;;6.00;99.90;;;;;;5093107;28;20582;-59
2023/02/11 00:10:33;;;;;;;37.60;21.50;;;6.00;99.90;;;;;;5092999;28;20578;-59
2023/02/11 00:13:01;;;;;;;33.13;22.00;;;6.00;99.90;;;;;;5093002;28;20241;-60
2023/02/11 00:15:31;;;;;;;36.80;20.90;;;6.00;99.90;;;;;;5093513;28;20593;-59
2023/02/11 00:17:59;;;;;;;42.10;22.93;;;6.10;99.90;;;;;;5094543;28;20268;-60
2023/02/11 00:20:27;;;;;;;38.00;21.97;;;6.10;99.90;;;;;;5098718;28;20694;-58
2023/02/11 00:22:55;;;;;;;40.67;22.30;;;6.10;99.90;;;;;;5092864;28;20237;-59
2023/02/11 00:25:23;;;;;;;36.87;21.67;;;6.00;99.90;;;;;;5093087;28;20276;-59
2023/02/11 00:27:51;;;;;;;35.37;22.10;;;6.10;99.90;;;;;;5092766;28;20237;-59
2023/02/11 00:30:19;;;;;;;40.00;23.23;;;6.20;99.90;;;;;;5092358;28;20260;-59
2023/02/11 00:32:49;;;;;;;33.97;21.50;;;6.10;99.90;;;;;;5092460;28;20230;-60
2023/02/11 00:35:17;;;;;;;39.23;22.60;;;6.10;99.90;;;;;;5092721;28;20237;-59
2023/02/11 00:37:45;;;;;;;38.00;22.47;;;6.10;99.90;;;;;;5074532;28;20230;-60
2023/02/11 00:40:14;;;;;;;35.63;21.13;;;6.10;99.90;;;;;;5092711;28;20229;-60
2023/02/11 00:42:42;;;;;;;43.10;22.03;;;6.10;99.90;;;;;;5074324;28;20250;-59
2023/02/11 00:45:11;;;;;;;40.50;23.60;;;6.20;99.90;;;;;;5092695;28;20248;-59
2023/02/11 00:47:39;;;;;;;44.27;22.80;;;6.20;99.90;;;;;;5092199;28;20460;-59
2023/02/11 00:50:09;;;;;;;46.97;23.67;;;6.20;99.90;;;;;;5092108;28;20558;-59
2023/02/11 00:52:37;;;;;;;36.43;21.10;;;6.20;99.90;;;;;;5072252;28;20219;-59
2023/02/11 00:55:05;;;;;;;42.70;23.90;;;6.20;99.90;;;;;;5072383;28;20219;-59
2023/02/11 00:57:33;;;;;;;37.83;22.17;;;6.20;99.90;;;;;;5072310;28;20238;-59
2023/02/11 01:00:01;;;;;;;37.77;23.17;;;6.20;99.90;;;;;;5054427;28;20694;-59
2023/02/11 01:02:30;;;;;;;36.10;22.87;;;6.10;99.90;;;;;;5071378;28;20242;-59
2023/02/11 01:04:58;;;;;;;44.60;24.00;;;6.10;99.90;;;;;;5054304;28;20242;-60
2023/02/11 01:07:28;;;;;;;45.20;22.73;;;6.10;99.90;;;;;;5072032;28;20215;-59
2023/02/11 01:09:56;;;;;;;40.93;22.90;;;6.10;99.90;;;;;;5072510;28;20568;-60
2023/02/11 01:12:25;;;;;;;39.83;23.30;;;6.10;99.90;;;;;;5072377;28;20226;-59
2023/02/11 01:14:53;;;;;;;41.27;23.87;;;6.10;99.90;;;;;;5087916;28;20315;-60
2023/02/11 01:17:21;;;;;;;46.37;23.77;;;6.10;99.90;;;;;;5092145;28;20717;-59
2023/02/11 01:19:50;;;;;;;42.63;23.77;;;6.10;99.90;;;;;;5092351;28;20573;-59
2023/02/11 01:22:18;;;;;;;41.87;23.43;;;6.10;99.90;;;;;;5074193;28;20223;-60
2023/02/11 01:24:48;;;;;;;43.97;23.53;;;6.10;99.90;;;;;;5094024;28;20305;-59
2023/02/11 01:27:16;;;;;;;45.60;24.30;;;6.10;99.90;;;;;;5077895;28;20237;-59
2023/02/11 01:29:44;;;;;;;45.40;24.20;;;6.10;99.90;;;;;;5096009;28;20269;-60
2023/02/11 01:32:13;;;;;;;39.77;23.90;;;6.10;99.90;;;;;;5069600;28;20241;-60
2023/02/11 01:34:41;;;;;;;39.17;23.53;;;6.10;99.90;;;;;;5078029;28;20238;-60
2023/02/11 01:37:09;;;;;;;43.37;22.87;;;6.10;99.90;;;;;;5093884;28;20733;-59
2023/02/11 01:39:37;;;;;;;40.63;23.70;;;6.10;99.90;;;;;;5097277;28;20219;-59
2023/02/11 01:42:07;;;;;;;48.13;24.93;;;6.10;99.90;;;;;;5077638;28;20321;-60
2023/02/11 01:44:37;;;;;;;44.57;24.67;;;6.10;99.90;;;;;;5089516;28;20249;-59
2023/02/11 01:47:06;;;;;;;38.77;24.13;;;6.10;99.90;;;;;;5095523;28;20260;-60
2023/02/11 01:49:37;;;;;;;41.20;23.00;;;6.20;99.90;;;;;;5095091;28;20230;-60
2023/02/11 01:52:10;;;;;;;42.63;23.53;;;6.10;99.90;;;;;;5095923;28;20241;-59
2023/02/11 01:57:34;;;;;;;42.00;23.60;;;6.20;99.90;;;;;;5077118;28;20718;-59
2023/02/11 02:00:10;;;;;;;37.97;21.60;;;6.20;99.90;;;;;;5077428;28;20585;-60
2023/02/11 02:02:50;;;;;;;44.63;23.37;;;6.20;99.90;;;;;;5094629;28;20272;-60
2023/02/11 02:05:24;;;;;;;41.07;21.50;;;6.20;99.90;;;;;;5095405;28;20309;-60
2023/02/11 02:08:03;;;;;;;42.90;22.80;;;6.20;99.90;;;;;;5095358;28;20211;-60
2023/02/11 02:10:34;;;;;;;37.23;21.20;;;6.20;99.90;;;;;;5089189;28;20236;-60
2023/02/11 02:13:04;;;;;;;37.33;20.73;;;6.20;99.90;;;;;;5095472;28;20248;-60
2023/02/11 02:15:34;;;;;;;37.67;21.27;;;6.20;99.90;;;;;;5077339;28;20230;-60
2023/02/11 02:18:12;;;;;;;40.07;22.23;;;6.20;99.90;;;;;;5095506;28;20581;-59
2023/02/11 02:21:24;;;;;;;42.53;20.73;;;6.20;99.90;;;;;;5094885;28;20245;-60
2023/02/11 02:24:31;;;;;;;37.97;20.40;;;6.20;99.90;;;;;;5095018;28;20280;-60
2023/02/11 02:27:19;;;;;;;37.03;19.93;;;6.20;99.90;;;;;;5038403;28;20755;-59
2023/02/11 02:30:20;;;;;;;39.37;20.13;;;6.20;99.90;;;;;;5094753;28;20234;-59
2023/02/11 02:33:03;;;;;;;43.27;21.20;;;6.20;99.90;;;;;;5060500;28;20256;-59
2023/02/11 02:35:58;;;;;;;37.87;19.50;;;6.20;99.90;;;;;;5073189;28;20260;-60
2023/02/11 02:38:31;;;;;;;37.37;20.10;;;6.30;99.90;;;;;;5074486;28;20245;-60
2023/02/11 02:41:04;;;;;;;41.27;19.57;;;6.30;99.90;;;;;;5074443;28;20223;-59
2023/02/11 02:43:34;;;;;;;37.33;20.73;;;6.30;99.90;;;;;;5080218;28;20334;-60
2023/02/11 02:46:15;;;;;;;36.97;18.83;;;6.20;99.90;;;;;;5056193;28;20465;-60
2023/02/11 02:48:46;;;;;;;33.73;17.87;;;6.30;99.90;;;;;;5082202;28;20234;-60
2023/02/11 02:51:41;;;;;;;37.90;19.43;;;6.40;99.90;;;;;;5063479;28;20223;-60
2023/02/11 02:54:43;;;;;;;41.50;19.43;;;6.30;99.90;;;;;;5063849;28;20235;-59
2023/02/11 02:57:24;;;;;;;38.37;18.97;;;6.30;99.90;;;;;;5074121;28;20226;-59
2023/02/11 03:00:24;;;;;;;37.93;18.90;;;6.40;99.90;;;;;;5074029;28;20226;-59
2023/02/11 03:03:07;;;;;;;33.03;17.50;;;6.40;99.90;;;;;;5108741;27;20229;-60
2023/02/11 03:05:46;;;;;;;35.07;17.87;;;6.40;99.90;;;;;;5135177;27;20745;-60
2023/02/11 03:08:23;;;;;;;32.07;17.23;;;6.40;99.90;;;;;;5134997;27;20221;-58
2023/02/11 03:10:54;;;;;;;40.63;17.93;;;6.40;99.90;;;;;;5135013;27;20217;-60
2023/02/11 03:13:27;;;;;;;34.00;16.80;;;6.40;99.90;;;;;;5131461;27;20318;-59
2023/02/11 03:15:59;;;;;;;31.17;16.77;;;6.50;99.90;;;;;;5114119;28;20226;-59
2023/02/11 03:18:31;;;;;;;32.00;17.03;;;6.40;99.90;;;;;;5122986;27;20312;-59
2023/02/11 03:21:02;;;;;;;32.87;16.87;;;6.50;99.90;;;;;;5133238;27;20274;-60
2023/02/11 03:23:36;;;;;;;36.63;16.40;;;6.50;99.90;;;;;;5134896;27;20232;-59
2023/02/11 03:26:11;;;;;;;31.37;16.57;;;6.50;99.90;;;;;;5135026;27;20707;-60
2023/02/11 03:28:44;;;;;;;33.67;16.27;;;6.50;99.90;;;;;;5134517;27;20212;-59
2023/02/11 03:31:18;;;;;;;33.90;16.47;;;6.50;99.90;;;;;;5132206;27;20248;-59
2023/02/11 03:33:53;;;;;;;32.63;15.20;;;6.50;99.90;;;;;;5114139;28;20221;-59
2023/02/11 03:36:27;;;;;;;31.40;15.73;;;6.60;99.90;;;;;;5114228;28;20222;-60
2023/02/11 03:38:57;;;;;;;30.43;15.93;;;6.50;99.90;;;;;;5114078;28;20230;-60
2023/02/11 03:41:26;;;;;;;32.07;16.33;;;6.60;99.90;;;;;;5113785;28;20218;-60
2023/02/11 03:43:56;;;;;;;35.70;17.17;;;6.60;99.90;;;;;;5114460;27;20242;-59
2023/02/11 03:46:28;;;;;;;28.20;15.13;;;6.60;99.90;;;;;;5113599;28;20229;-59
2023/02/11 03:49:02;;;;;;;27.60;15.10;;;6.60;99.90;;;;;;5105117;28;20628;-59
2023/02/11 03:51:33;;;;;;;34.93;15.13;;;6.60;99.90;;;;;;5113728;28;20681;-60
2023/02/11 03:54:05;;;;;;;30.07;15.20;;;6.60;99.90;;;;;;5113629;28;20226;-59
2023/02/11 03:56:41;;;;;;;29.20;15.80;;;6.60;99.90;;;;;;5113742;28;20585;-58
2023/02/11 03:59:09;;;;;;;26.70;14.90;;;6.60;99.90;;;;;;5113704;28;20237;-59
2023/02/11 04:01:37;;;;;;;30.83;14.97;;;6.60;99.90;;;;;;5113038;28;20644;-59
2023/02/11 04:04:05;;;;;;;31.20;15.73;;;6.60;99.90;;;;;;5113485;28;20752;-59
2023/02/11 04:06:35;;;;;;;28.50;14.57;;;6.60;99.90;;;;;;5113581;28;20214;-59
2023/02/11 04:09:03;;;;;;;32.00;14.70;;;6.70;99.90;;;;;;5113432;28;20607;-59
2023/02/11 04:11:31;;;;;;;30.60;14.50;;;6.60;99.90;;;;;;5113507;28;20217;-59
2023/02/11 04:13:59;;;;;;;31.33;15.93;;;6.60;99.90;;;;;;5108422;28;20249;-59
2023/02/11 04:16:28;;;;;;;28.47;15.27;;;6.60;99.90;;;;;;5113251;28;20222;-60
2023/02/11 04:18:57;;;;;;;29.73;15.53;;;6.70;99.90;;;;;;5104848;28;20682;-59
2023/02/11 04:21:25;;;;;;;34.17;15.67;;;6.60;99.90;;;;;;5113400;28;20218;-59
2023/02/11 04:23:54;;;;;;;29.70;15.83;;;6.70;99.90;;;;;;5113509;28;20673;-59
2023/02/11 04:26:22;;;;;;;28.77;14.33;;;6.70;99.90;;;;;;5113160;28;20229;-60
2023/02/11 04:28:50;;;;;;;31.40;14.10;;;6.80;99.90;;;;;;5113351;28;20221;-59
2023/02/11 04:31:18;;;;;;;33.83;15.23;;;6.80;99.90;;;;;;5112848;28;20712;-59
2023/02/11 04:33:46;;;;;;;28.23;14.03;;;6.70;99.90;;;;;;5113263;28;20566;-60
2023/02/11 04:36:14;;;;;;;29.40;15.73;;;6.70;99.90;;;;;;5113312;28;20217;-59
2023/02/11 04:38:42;;;;;;;32.83;14.23;;;6.70;99.90;;;;;;5112817;28;20230;-59
2023/02/11 04:41:12;;;;;;;28.03;13.43;;;6.70;99.90;;;;;;5113324;28;20577;-59
2023/02/11 04:43:40;;;;;;;31.87;14.50;;;6.80;99.90;;;;;;5108411;28;20249;-59
2023/02/11 04:46:08;;;;;;;28.80;14.30;;;6.80;99.90;;;;;;5112844;28;20708;-59
2023/02/11 04:48:36;;;;;;;31.67;15.23;;;6.80;99.90;;;;;;5105344;28;20251;-60
2023/02/11 04:51:04;;;;;;;30.73;14.57;;;6.80;99.90;;;;;;5111015;28;20689;-58
2023/02/11 04:53:32;;;;;;;30.37;14.33;;;6.80;99.90;;;;;;5104201;28;20718;-59
2023/02/11 04:56:00;;;;;;;31.50;14.10;;;6.80;99.90;;;;;;5112165;28;20235;-59
2023/02/11 04:58:30;;;;;;;25.43;14.10;;;6.80;99.90;;;;;;5112799;28;20228;-59
2023/02/11 05:01:05;;;;;;;33.57;15.17;;;6.80;99.90;;;;;;5115727;28;20248;-60
2023/02/11 05:03:34;;;;;;;29.43;15.10;;;6.80;99.90;;;;;;5116170;28;20233;-60
2023/02/11 05:06:02;;;;;;;29.07;15.03;;;6.80;99.90;;;;;;5116445;28;20225;-60
2023/02/11 05:08:30;;;;;;;31.80;14.33;;;6.90;99.90;;;;;;5116385;28;20226;-60
2023/02/11 05:11:00;;;;;;;31.23;15.67;;;6.80;99.90;;;;;;5116673;28;20228;-60
2023/02/11 05:13:32;;;;;;;29.70;13.90;;;6.80;99.90;;;;;;5116076;28;20222;-59
2023/02/11 05:16:01;;;;;;;33.43;14.50;;;6.80;99.90;;;;;;5116450;28;20296;-59
2023/02/11 05:18:29;;;;;;;25.33;14.10;;;6.80;99.90;;;;;;5116100;28;20221;-59
2023/02/11 05:20:57;;;;;;;26.63;14.53;;;6.80;99.90;;;;;;5097741;28;20246;-59
2023/02/11 05:23:25;;;;;;;27.80;13.77;;;6.80;99.90;;;;;;5116366;28;20221;-59
2023/02/11 05:25:53;;;;;;;24.90;13.17;;;6.80;99.90;;;;;;5101129;27;20740;-59
2023/02/11 05:28:21;;;;;;;25.03;14.17;;;6.80;99.90;;;;;;5096088;28;20317;-60
2023/02/11 05:30:50;;;;;;;25.80;15.03;;;6.90;99.90;;;;;;5095509;28;20755;-59
2023/02/11 05:33:19;;;;;;;25.37;13.80;;;6.90;99.90;;;;;;5096336;28;20288;-60
2023/02/11 05:35:47;;;;;;;26.83;14.03;;;6.90;99.90;;;;;;5095877;28;20589;-59
2023/02/11 05:38:15;;;;;;;26.43;14.17;;;6.90;99.90;;;;;;5096200;28;20725;-59
2023/02/11 05:40:43;;;;;;;25.27;14.87;;;6.90;99.90;;;;;;5109296;27;20229;-60
2023/02/11 05:43:11;;;;;;;28.57;14.90;;;6.90;99.90;;;;;;5115955;28;20283;-59
2023/02/11 05:45:39;;;;;;;27.07;14.50;;;6.80;99.90;;;;;;5116091;28;20689;-59
2023/02/11 05:48:08;;;;;;;28.20;14.67;;;6.80;99.90;;;;;;5101492;28;20221;-60
2023/02/11 05:50:36;;;;;;;28.47;15.37;;;6.80;99.90;;;;;;5113705;28;20685;-59
2023/02/11 05:53:05;;;;;;;32.00;15.57;;;6.80;99.90;;;;;;5116095;28;20746;-59
2023/02/11 05:55:34;;;;;;;27.50;15.83;;;6.90;99.90;;;;;;5100357;28;20226;-60
2023/02/11 05:58:02;;;;;;;24.40;14.37;;;6.90;99.90;;;;;;5095744;28;20233;-60
2023/02/11 06:00:30;;;;;;;25.00;15.27;;;6.90;99.90;;;;;;5094714;28;20288;-59
2023/02/11 06:02:58;;;;;;;26.57;15.23;;;6.80;99.90;;;;;;5095727;28;20234;-59
2023/02/11 06:05:27;;;;;;;27.20;14.87;;;6.90;99.90;;;;;;5112616;28;20221;-59
2023/02/11 06:07:55;;;;;;;27.50;15.37;;;6.90;99.90;;;;;;5115750;28;20241;-59
2023/02/11 06:10:23;;;;;;;30.57;15.00;;;6.90;99.90;;;;;;5115460;28;20229;-59
2023/02/11 06:12:51;;;;;;;25.30;14.50;;;6.90;99.90;;;;;;5115559;28;20229;-59
2023/02/11 06:15:20;;;;;;;30.13;15.10;;;6.90;99.90;;;;;;5114963;28;20230;-59
2023/02/11 06:17:48;;;;;;;24.07;14.03;;;6.90;99.90;;;;;;5114745;28;20308;-58
2023/02/11 06:20:16;;;;;;;28.17;15.67;;;6.90;99.90;;;;;;5115199;28;20555;-59
2023/02/11 06:22:46;;;;;;;23.37;15.83;;;6.90;99.90;;;;;;5114730;28;20233;-59
2023/02/11 06:25:14;;;;;;;25.00;14.70;;;6.90;99.90;;;;;;5115144;28;20237;-59
2023/02/11 06:27:42;;;;;;;25.70;14.87;;;6.90;99.90;;;;;;5112077;28;20225;-59
2023/02/11 06:30:11;;;;;;;26.67;14.77;;;6.90;99.90;;;;;;5115181;28;20689;-59
2023/02/11 06:32:39;;;;;;;21.23;14.27;;;6.90;99.90;;;;;;5114558;28;20249;-59
2023/02/11 06:35:13;;;;;;;27.30;15.67;;;6.90;99.90;;;;;;5115219;28;20230;-59
2023/02/11 06:37:42;;;;;;;23.20;14.67;;;6.90;99.90;;;;;;5114606;28;20738;-59
2023/02/11 06:40:12;;;;;;;26.87;16.00;;;6.90;99.90;;;;;;5112348;28;20233;-60
2023/02/11 06:42:40;;;;;;;23.93;15.10;;;7.00;99.90;;;;;;5118189;27;20229;-59
2023/02/11 06:45:09;;;;;;;21.90;13.77;;;7.00;99.90;;;;;;5117147;27;20705;-59
2023/02/11 06:47:37;;;;;;;29.80;16.83;;;7.00;99.90;;;;;;5122827;27;20621;-60
2023/02/11 06:50:08;;;;;;;24.77;15.17;;;7.00;99.90;;;;;;5126954;27;20681;-59
2023/02/11 06:52:36;;;;;;;26.17;16.43;;;7.00;99.90;;;;;;5121083;27;20229;-60
2023/02/11 06:55:05;;;;;;;28.27;16.60;;;7.00;99.90;;;;;;5114934;28;20232;-58
2023/02/11 06:57:34;;;;;;;28.60;16.37;;;7.00;99.90;;;;;;5114864;28;20226;-59
2023/02/11 07:00:03;;;;;;;28.83;16.60;;;7.00;99.90;;;;;;5114891;28;20245;-59
2023/02/11 07:02:32;;;;;;;30.43;17.40;;;7.00;99.90;;;;;;5113807;28;20612;-59
2023/02/11 07:05:00;;;;;;;27.30;17.53;;;7.00;99.90;;;;;;5134896;27;20225;-59
2023/02/11 07:07:28;;;;;;;23.13;16.40;;;7.00;99.90;;;;;;5134974;27;20229;-60
2023/02/11 07:10:01;;;;;;;29.10;16.93;;;7.00;99.90;;;;;;5135356;27;20230;-60
2023/02/11 07:12:30;;;;;;;32.30;17.30;;;7.00;99.90;;;;;;5135150;27;20270;-59
2023/02/11 07:14:59;;;;;;;32.73;17.43;;;7.00;99.90;;;;;;5118226;27;20218;-60
2023/02/11 07:17:27;;;;;;;30.33;16.90;;;7.00;99.90;;;;;;5120629;27;20229;-60
2023/02/11 07:19:55;;;;;;;29.93;16.53;;;7.10;99.90;;;;;;5126299;27;20263;-59
2023/02/11 07:22:23;;;;;;;30.80;17.43;;;7.10;99.90;;;;;;5122023;27;20252;-59
2023/02/11 07:24:51;;;;;;;31.60;16.53;;;7.10;99.90;;;;;;5114347;28;20218;-59
2023/02/11 07:27:19;;;;;;;27.57;16.67;;;7.20;99.90;;;;;;5114353;28;20582;-59
2023/02/11 07:29:47;;;;;;;25.63;16.83;;;7.20;99.90;;;;;;5118338;27;20731;-59
2023/02/11 07:32:17;;;;;;;29.20;17.70;;;7.20;99.90;;;;;;5122040;27;20240;-59
2023/02/11 07:34:46;;;;;;;27.90;18.20;;;7.20;99.90;;;;;;5121404;27;20814;-60
2023/02/11 07:37:15;;;;;;;35.23;18.03;;;7.20;99.90;;;;;;5124626;27;20232;-58
2023/02/11 07:39:43;;;;;;;30.77;18.33;;;7.20;99.90;;;;;;5123069;27;20574;-59
2023/02/11 07:42:11;;;;;;;31.50;18.27;;;7.20;99.90;;;;;;5130982;27;20229;-60
2023/02/11 07:44:39;;;;;;;30.77;17.83;;;7.20;99.90;;;;;;5120831;27;20234;-59
2023/02/11 07:47:07;;;;;;;27.10;17.70;;;7.20;99.90;;;;;;5116464;27;20223;-60
2023/02/11 07:49:36;;;;;;;31.47;17.53;;;7.20;99.90;;;;;;5122546;27;20225;-59
2023/02/11 07:52:05;;;;;;;32.10;19.50;;;7.20;99.90;;;;;;5120382;27;20561;-60
2023/02/11 07:54:33;;;;;;;31.97;18.57;;;7.20;99.90;;;;;;5122688;27;20229;-60
2023/02/11 07:57:01;;;;;;;33.07;17.97;;;7.20;99.90;;;;;;5124369;27;20629;-60
2023/02/11 07:59:29;;;;;;;32.90;18.30;;;7.20;99.90;;;;;;5122654;27;20213;-60
2023/02/11 08:01:57;;;;;;;33.60;18.03;;;7.30;99.90;;;;;;5121667;27;20236;-59
2023/02/11 08:04:25;;;;;;;39.83;19.83;;;7.20;99.90;;;;;;5120248;27;20256;-60
2023/02/11 08:06:56;;;;;;;37.80;19.03;;;7.20;99.90;;;;;;5117325;27;20228;-59
2023/02/11 08:09:26;;;;;;;35.70;18.80;;;7.20;99.90;;;;;;5121025;27;20225;-59
2023/02/11 08:11:54;;;;;;;32.77;18.70;;;7.30;99.90;;;;;;5113483;28;20287;-60
2023/02/11 08:14:23;;;;;;;34.97;19.17;;;7.30;99.90;;;;;;5121450;27;20237;-59
2023/02/11 08:16:52;;;;;;;33.60;19.13;;;7.30;99.90;;;;;;5114616;27;20279;-60
2023/02/11 08:19:20;;;;;;;30.57;18.70;;;7.30;99.90;;;;;;5125136;27;20221;-60
2023/02/11 08:21:48;;;;;;;34.43;19.00;;;7.30;99.90;;;;;;5133877;27;20237;-59
2023/02/11 08:24:17;;;;;;;29.77;19.03;;;7.30;99.90;;;;;;5134051;27;20221;-59
2023/02/11 08:26:45;;;;;;;30.80;19.17;;;7.30;99.90;;;;;;5104341;28;20601;-59
2023/02/11 08:29:16;;;;;;;31.13;18.63;;;7.30;99.90;;;;;;5106401;28;20221;-60
2023/02/11 08:31:46;;;;;;;31.83;17.67;;;7.30;99.90;;;;;;5107299;28;20229;-58
2023/02/11 08:34:17;;;;;;;30.73;18.50;;;7.40;99.90;;;;;;5110539;27;20234;-59
2023/02/11 08:36:47;;;;;;;29.47;17.90;;;7.40;99.90;;;;;;5111026;27;20226;-59
2023/02/11 08:39:19;;;;;;;33.17;19.00;;;7.40;99.90;;;;;;5112334;28;20251;-60
2023/02/11 08:41:49;;;;;;;32.80;19.33;;;7.40;99.90;;;;;;5110732;28;20676;-59
2023/02/11 08:44:17;;;;;;;28.30;17.67;;;7.40;99.90;;;;;;5109081;28;20234;-59
2023/02/11 08:46:45;;;;;;;31.47;17.90;;;7.40;99.90;;;;;;5107510;28;20244;-60
2023/02/11 08:49:14;;;;;;;27.60;17.27;;;7.50;99.90;;;;;;5107908;28;20225;-57
2023/02/11 08:51:42;;;;;;;28.10;17.53;;;7.40;99.90;;;;;;5107809;28;20225;-60
2023/02/11 08:54:11;;;;;;;28.00;17.40;;;7.40;99.90;;;;;;5108042;28;20589;-60
2023/02/11 08:56:41;;;;;;;27.93;17.00;;;7.40;99.90;;;;;;5107732;28;20232;-60
2023/02/11 08:59:12;;;;;;;29.20;17.40;;;7.40;99.90;;;;;;5106982;28;20245;-59
2023/02/11 09:01:40;;;;;;;27.40;17.03;;;7.40;99.90;;;;;;5107484;28;20606;-60
2023/02/11 09:04:10;;;;;;;29.93;16.17;;;7.50;99.90;;;;;;5107781;28;20233;-59
2023/02/11 09:06:38;;;;;;;31.07;16.70;;;7.50;99.90;;;;;;5107334;28;20226;-60
2023/02/11 09:09:06;;;;;;;30.63;15.93;;;7.50;99.90;;;;;;5110624;28;20229;-59
2023/02/11 09:11:36;;;;;;;31.47;16.33;;;7.50;99.90;;;;;;5112378;28;20577;-59
2023/02/11 09:14:06;;;;;;;32.50;16.43;;;7.50;99.90;;;;;;5112593;28;20653;-59
2023/02/11 09:16:36;;;;;;;26.73;14.97;;;7.50;99.90;;;;;;5109483;28;20210;-60
2023/02/11 09:19:05;;;;;;;25.80;16.03;;;7.50;99.90;;;;;;5112483;28;20246;-59
2023/02/11 09:21:33;;;;;;;29.77;15.60;;;7.50;99.90;;;;;;5110623;28;20616;-60
2023/02/11 09:24:01;;;;;;;31.53;16.17;;;7.50;99.90;;;;;;5113079;28;20222;-60
2023/02/11 09:26:33;;;;;;;37.17;15.90;;;7.50;99.90;;;;;;5114195;28;20221;-59
2023/02/11 09:29:02;;;;;;;27.53;15.07;;;7.50;99.90;;;;;;5112338;28;20230;-59
2023/02/11 09:31:33;;;;;;;23.87;14.37;;;7.60;99.90;;;;;;5097074;28;20230;-60
2023/02/11 09:34:03;;;;;;;31.63;14.63;;;7.60;99.90;;;;;;5106452;28;20573;-60
2023/02/11 09:36:33;;;;;;;28.23;14.13;;;7.60;99.90;;;;;;5112660;28;20229;-59
2023/02/11 09:39:02;;;;;;;30.03;15.00;;;7.60;99.90;;;;;;5123850;28;20232;-59
2023/02/11 09:41:41;;;;;;;31.87;14.47;;;7.60;99.90;;;;;;5109954;28;20222;-60
2023/02/11 09:44:18;;;;;;;28.10;13.83;;;7.60;99.90;;;;;;5113905;28;20242;-60
2023/02/11 09:46:54;;;;;;;29.10;14.33;;;7.60;99.90;;;;;;5119406;27;20229;-60
2023/02/11 09:49:29;;;;;;;35.07;14.23;;;7.70;99.90;;;;;;5123873;27;20711;-60
2023/02/11 09:52:04;;;;;;;32.87;14.13;;;7.70;99.90;;;;;;5126099;27;20576;-60
2023/02/11 09:54:40;;;;;;;31.43;13.93;;;7.70;99.90;;;;;;5125918;27;20695;-60
2023/02/11 09:57:09;;;;;;;31.03;13.97;;;7.70;99.90;;;;;;5125156;27;20308;-60
2023/02/11 09:59:55;;;;;;;25.00;12.87;;;7.70;99.90;;;;;;5121171;27;20217;-59
2023/02/11 10:02:34;;;;;;;28.07;13.60;;;7.80;99.90;;;;;;5121070;27;20225;-60
2023/02/11 10:05:24;;;;;;;30.73;12.77;;;7.70;99.90;;;;;;5126309;27;20248;-60
2023/02/11 10:08:01;;;;;;;33.33;13.40;;;7.80;99.90;;;;;;5125643;27;20222;-60
2023/02/11 10:10:40;;;;;;;30.63;12.90;;;7.80;99.90;;;;;;5122978;27;20213;-60
2023/02/11 10:13:32;;;;;;;26.17;12.77;;;7.80;99.90;;;;;;5122995;27;20201;-60
2023/02/11 10:16:09;;;;;;;33.93;12.60;;;7.80;99.90;;;;;;5115107;27;20596;-59
2023/02/11 10:18:51;;;;;;;31.67;12.53;;;7.80;99.90;;;;;;5121953;27;20221;-60
2023/02/11 10:21:31;;;;;;;30.17;12.00;;;7.80;99.90;;;;;;5125539;27;20233;-60
2023/02/11 10:24:04;;;;;;;24.97;11.73;;;7.80;99.90;;;;;;5120760;27;20626;-60
2023/02/11 10:26:34;;;;;;;28.43;11.37;;;7.80;99.90;;;;;;5115231;28;20226;-59
2023/02/11 10:29:22;;;;;;;27.23;12.50;;;7.90;99.90;;;;;;5115097;28;20241;-59
2023/02/11 10:31:51;;;;;;;26.57;11.63;;;7.90;99.90;;;;;;5115300;27;20234;-60
2023/02/11 10:34:21;;;;;;;22.87;11.17;;;7.90;99.90;;;;;;5124574;27;20231;-60
2023/02/11 10:36:49;;;;;;;30.10;11.70;;;7.90;99.90;;;;;;5125217;27;20221;-60
2023/02/11 10:39:19;;;;;;;27.60;11.40;;;7.90;99.90;;;;;;5125019;27;20262;-60
2023/02/11 10:41:50;;;;;;;26.47;11.43;;;7.90;99.90;;;;;;5119097;27;20257;-60
2023/02/11 10:44:27;;;;;;;28.63;11.37;;;7.90;99.90;;;;;;5125276;27;20252;-59
2023/02/11 10:46:56;;;;;;;27.83;11.20;;;7.90;99.90;;;;;;5122358;27;20226;-60
2023/02/11 10:49:37;;;;;;;24.30;10.00;;;8.00;99.90;;;;;;5120681;27;20229;-60
2023/02/11 10:52:24;;;;;;;25.67;11.00;;;7.90;99.90;;;;;;5103203;27;20700;-60
2023/02/11 10:55:01;;;;;;;23.73;10.70;;;7.90;99.90;;;;;;5112327;27;20222;-59
2023/02/11 10:57:36;;;;;;;27.67;11.43;;;8.00;99.90;;;;;;5110523;27;20229;-59
2023/02/11 11:00:20;;;;;;;24.07;10.70;;;8.00;99.90;;;;;;5109720;27;20703;-59
2023/02/11 11:02:55;;;;;;;28.47;10.97;;;8.10;99.90;;;;;;5109909;27;20230;-60
2023/02/11 11:05:31;;;;;;;26.10;10.60;;;8.10;99.90;;;;;;5111444;27;20220;-60
2023/02/11 11:08:01;;;;;;;25.00;10.43;;;8.10;99.90;;;;;;5111070;27;20240;-57
2023/02/11 11:10:36;;;;;;;25.53;9.70;;;8.10;99.90;;;;;;5109737;27;20226;-57
2023/02/11 11:13:22;;;;;;;24.50;9.67;;;8.10;99.90;;;;;;5112707;27;20228;-57
2023/02/11 11:16:08;;;;;;;24.10;10.10;;;8.10;99.90;;;;;;5115545;27;20681;-59
2023/02/11 11:18:36;;;;;;;29.83;9.77;;;8.10;99.90;;;;;;5123900;27;20221;-57
2023/02/11 11:21:07;;;;;;;21.20;8.63;;;8.00;99.90;;;;;;5124203;27;20226;-58
2023/02/11 11:23:36;;;;;;;21.30;8.67;;;8.10;99.90;;;;;;5121353;27;20225;-58
2023/02/11 11:26:07;;;;;;;23.77;8.77;;;8.10;99.90;;;;;;5124481;27;20222;-58
2023/02/11 11:28:39;;;;;;;22.77;8.27;;;8.10;99.90;;;;;;5124643;27;20263;-58
2023/02/11 11:31:14;;;;;;;25.57;8.83;;;8.10;99.90;;;;;;5123378;27;20240;-58
2023/02/11 11:33:43;;;;;;;24.20;7.57;;;8.20;99.90;;;;;;5120488;27;20217;-58
2023/02/11 11:36:16;;;;;;;20.67;7.20;;;8.20;99.90;;;;;;5127601;27;20235;-58
2023/02/11 11:38:49;;;;;;;21.40;7.83;;;8.20;99.90;;;;;;5121100;27;20230;-58
2023/02/11 11:41:26;;;;;;;21.23;7.07;;;8.30;99.90;;;;;;5122498;27;20233;-58
2023/02/11 11:43:59;;;;;;;20.17;7.63;;;8.20;99.90;;;;;;5122373;27;20244;-58
2023/02/11 11:46:30;;;;;;;23.40;8.00;;;8.20;99.90;;;;;;5119557;27;20685;-58
2023/02/11 11:49:07;;;;;;;16.20;6.87;;;8.30;99.90;;;;;;5116646;27;20279;-58
2023/02/11 11:51:39;;;;;;;27.57;7.57;;;8.30;99.90;;;;;;5121851;27;20232;-58
2023/02/11 11:54:13;;;;;;;19.80;6.90;;;8.30;99.90;;;;;;5122150;27;20224;-58
2023/02/11 11:56:50;;;;;;;18.80;7.10;;;8.30;99.90;;;;;;5118588;27;20229;-58
2023/02/11 11:59:18;;;;;;;16.97;6.67;;;8.30;99.90;;;;;;5093197;28;20219;-58
2023/02/11 12:01:59;;;;;;;22.63;7.07;;;8.30;99.90;;;;;;5092477;28;20234;-58
2023/02/11 12:04:42;;;;;;;20.03;6.77;;;8.30;99.90;;;;;;5093194;28;20245;-58
2023/02/11 12:07:24;;;;;;;15.97;5.93;;;8.30;99.90;;;;;;5093369;28;20628;-58
2023/02/11 12:10:22;;;;;;;15.63;6.03;;;8.30;99.90;;;;;;5105547;28;20230;-58
2023/02/11 12:13:02;;;;;;;21.27;5.87;;;8.40;99.90;;;;;;5113310;28;20214;-58
2023/02/11 12:15:36;;;;;;;18.90;6.57;;;8.40;99.90;;;;;;5099973;28;20240;-58
2023/02/11 12:18:16;;;;;;;18.63;6.77;;;8.40;99.90;;;;;;5117247;27;20601;-58
2023/02/11 12:21:01;;;;;;;19.23;6.20;;;8.40;99.90;;;;;;5116712;27;20221;-58
2023/02/11 12:23:42;;;;;;;16.87;5.60;;;8.40;99.90;;;;;;5114432;27;20750;-58
2023/02/11 12:26:16;;;;;;;19.00;5.37;;;8.40;99.90;;;;;;5133755;27;20274;-58
2023/02/11 12:29:00;;;;;;;19.83;5.80;;;8.30;99.90;;;;;;5133578;27;20232;-58
2023/02/11 12:31:42;;;;;;;21.67;5.70;;;8.30;99.90;;;;;;5133170;27;20236;-58
2023/02/11 12:34:35;;;;;;;17.13;4.90;;;8.30;99.90;;;;;;5119568;27;20726;-58
2023/02/11 12:37:14;;;;;;;18.47;5.10;;;8.30;99.90;;;;;;5112936;28;20678;-58
2023/02/11 12:39:50;;;;;;;17.53;4.53;;;8.30;99.90;;;;;;5112818;28;20232;-58
2023/02/11 12:45:30;;;;;;;16.27;4.33;;;8.30;99.90;;;;;;5120277;28;20225;-58
2023/02/11 12:48:11;;;;;;;14.37;4.17;;;8.30;99.90;;;;;;5118072;28;20217;-58
2023/02/11 12:50:48;;;;;;;15.27;4.00;;;8.40;99.90;;;;;;5118963;28;20712;-58
2023/02/11 12:53:38;;;;;;;13.33;3.70;;;8.40;99.90;;;;;;5106919;28;20221;-58
2023/02/11 12:56:16;;;;;;;16.30;4.03;;;8.30;99.90;;;;;;5115776;28;20228;-57
2023/02/11 12:58:46;;;;;;;14.50;3.80;;;8.30;99.90;;;;;;5113071;28;20240;-58
2023/02/11 13:01:19;;;;;;;19.40;4.23;;;8.40;99.90;;;;;;5112421;28;20237;-58
2023/02/11 13:03:51;;;;;;;15.70;4.00;;;8.30;99.90;;;;;;5111260;28;20240;-58
2023/02/11 13:06:24;;;;;;;19.50;4.43;;;8.40;99.90;;;;;;5104737;28;20237;-58
2023/02/11 13:08:57;;;;;;;19.40;4.07;;;8.30;99.90;;;;;;5108122;28;20245;-58